createdAt,value
2022-09-01T00:02:57.012Z,5.03
2022-09-01T00:05:59.061Z,4.45
2022-09-01T00:09:05.829Z,4.75
2022-09-01T00:12:09.504Z,4.60
2022-09-01T00:15:12.843Z,4.88
2022-09-01T00:18:15.022Z,4.57
2022-09-01T00:21:21.621Z,4.95
2022-09-01T00:24:23.750Z,5.10
2022-09-01T00:27:27.945Z,4.97
2022-09-01T00:30:32.880Z,5.60
2022-09-01T00:33:35.906Z,4.70
2022-09-01T00:36:37.968Z,4.85
2022-09-01T00:39:39.936Z,4.82
2022-09-01T00:42:42.611Z,4.43
2022-09-01T00:45:44.830Z,4.68
2022-09-01T00:51:58.903Z,4.05
2022-09-01T00:55:07.830Z,4.90
2022-09-01T00:58:19.745Z,4.28
2022-09-01T01:01:35.739Z,4.10
2022-09-01T01:04:38.241Z,4.28
2022-09-01T01:10:43.496Z,4.60
2022-09-01T01:13:51.153Z,4.57
2022-09-01T01:16:56.372Z,4.60
2022-09-01T01:19:59.908Z,4.70
2022-09-01T01:23:26.747Z,5.82
2022-09-01T01:26:29.104Z,4.38
2022-09-01T01:29:36.739Z,4.10
2022-09-01T01:32:40.067Z,4.22
2022-09-01T01:35:42.092Z,4.50
2022-09-01T01:38:49.007Z,4.57
2022-09-01T01:41:53.992Z,4.43
2022-09-01T01:44:57.885Z,5.07
2022-09-01T01:48:00.088Z,4.75
2022-09-01T01:51:03.672Z,4.47
2022-09-01T01:54:06.198Z,4.50
2022-09-01T01:57:08.093Z,4.50
2022-09-01T02:00:11.224Z,4.78
2022-09-01T02:03:16.337Z,4.78
2022-09-01T02:06:18.884Z,4.40
2022-09-01T02:09:22.287Z,4.68
2022-09-01T02:15:26.395Z,4.63
2022-09-01T02:18:37.340Z,4.10
2022-09-01T02:21:39.481Z,4.82
2022-09-01T02:24:41.443Z,4.50
2022-09-01T02:27:43.564Z,4.30
2022-09-01T02:30:47.689Z,4.43
2022-09-01T02:33:50.525Z,4.57
2022-09-01T02:36:54.780Z,4.68
2022-09-01T02:39:58.995Z,4.35
2022-09-01T02:43:01.491Z,4.78
2022-09-01T02:49:06.410Z,4.40
2022-09-01T02:52:08.341Z,4.32
2022-09-01T02:55:10.315Z,4.13
2022-09-01T02:58:12.367Z,4.28
2022-09-01T03:01:25.567Z,4.30
2022-09-01T03:04:27.736Z,4.35
2022-09-01T03:07:30.200Z,4.50
2022-09-01T03:10:35.041Z,4.35
2022-09-01T03:13:39.013Z,4.78
2022-09-01T03:16:41.886Z,5.13
2022-09-01T03:19:43.971Z,4.72
2022-09-01T03:22:48.272Z,4.72
2022-09-01T03:25:50.187Z,5.55
2022-09-01T03:28:52.919Z,5.22
2022-09-01T03:31:55.045Z,4.82
2022-09-01T03:34:57.537Z,5.07
2022-09-01T03:38:01.842Z,5.05
2022-09-01T03:41:05.534Z,4.38
2022-09-01T03:44:07.599Z,5.05
2022-09-01T03:47:09.618Z,4.97
2022-09-01T03:50:15.652Z,5.53
2022-09-01T03:53:22.056Z,4.60
2022-09-01T03:56:25.256Z,5.65
2022-09-01T03:59:27.875Z,5.15
2022-09-01T04:02:29.887Z,5.68
2022-09-01T04:05:36.106Z,4.90
2022-09-01T04:08:38.146Z,4.90
2022-09-01T04:11:45.620Z,5.07
2022-09-01T04:14:49.381Z,5.07
2022-09-01T04:17:51.333Z,5.28
2022-09-01T04:20:56.834Z,5.30
2022-09-01T04:23:58.775Z,5.80
2022-09-01T04:27:02.754Z,5.57
2022-09-01T04:30:05.195Z,5.32
2022-09-01T04:33:10.104Z,5.07
2022-09-01T04:36:19.090Z,5.53
2022-09-01T04:39:23.712Z,6.45
2022-09-01T04:42:28.158Z,5.55
2022-09-01T04:45:31.126Z,5.40
2022-09-01T04:48:33.785Z,5.45
2022-09-01T04:51:39.973Z,5.90
2022-09-01T04:54:42.276Z,5.40
2022-09-01T04:57:46.873Z,5.35
2022-09-01T05:00:50.297Z,5.18
2022-09-01T05:03:54.382Z,5.97
2022-09-01T05:07:15.393Z,6.38
2022-09-01T05:10:17.594Z,6.43
2022-09-01T05:13:39.507Z,5.82
2022-09-01T05:16:41.608Z,7.20
2022-09-01T05:19:45.489Z,7.55
2022-09-01T05:22:47.987Z,6.22
2022-09-01T05:25:51.990Z,6.72
2022-09-01T05:28:58.037Z,5.88
2022-09-01T05:32:00.287Z,6.03
2022-09-01T05:35:05.727Z,6.63
2022-09-01T05:38:08.057Z,7.20
2022-09-01T05:41:11.674Z,7.95
2022-09-01T05:44:14.547Z,7.68
2022-09-01T05:47:20.644Z,7.72
2022-09-01T05:50:28.307Z,7.03
2022-09-01T05:53:30.440Z,7.82
2022-09-01T05:59:35.235Z,7.97
2022-09-01T06:02:44.086Z,8.57
2022-09-01T06:05:56.156Z,9.20
2022-09-01T06:08:58.891Z,8.88
2022-09-01T06:12:01.910Z,8.15
2022-09-01T06:15:04.651Z,7.40
2022-09-01T06:18:08.706Z,8.18
2022-09-01T06:21:17.627Z,7.18
2022-09-01T06:24:21.296Z,7.38
2022-09-01T06:27:23.429Z,8.40
2022-09-01T06:30:25.535Z,7.30
2022-09-01T06:33:33.965Z,7.70
2022-09-01T06:36:39.998Z,6.80
2022-09-01T06:39:42.893Z,7.07
2022-09-01T06:42:49.862Z,6.13
2022-09-01T06:45:51.993Z,6.28
2022-09-01T06:48:54.268Z,6.60
2022-09-01T06:51:56.315Z,7.20
2022-09-01T06:58:24.120Z,7.47
2022-09-01T07:01:28.497Z,6.88
2022-09-01T07:04:32.514Z,6.95
2022-09-01T07:08:04.863Z,7.05
2022-09-01T07:18:21.781Z,5.78
2022-09-01T07:21:39.215Z,6.13
2022-09-01T07:24:44.203Z,6.78
2022-09-01T07:28:09.819Z,6.45
2022-09-01T07:34:40.423Z,6.22
2022-09-01T07:39:57.253Z,6.60
2022-09-01T07:44:48.571Z,6.32
2022-09-01T07:48:09.790Z,5.80
2022-09-01T07:51:38.312Z,6.25
2022-09-01T07:54:42.219Z,5.85
2022-09-01T07:57:45.522Z,5.47
2022-09-01T08:00:49.582Z,5.15
2022-09-01T08:03:57.338Z,5.88
2022-09-01T08:06:59.471Z,5.88
2022-09-01T08:10:05.583Z,4.97
2022-09-01T08:13:16.748Z,5.95
2022-09-01T08:16:24.218Z,6.00
2022-09-01T08:19:28.387Z,5.63
2022-09-01T08:22:41.281Z,5.80
2022-09-01T08:25:56.920Z,5.70
2022-09-01T08:28:59.363Z,5.97
2022-09-01T08:32:10.727Z,5.50
2022-09-01T08:35:19.858Z,5.07
2022-09-01T08:38:25.253Z,5.40
2022-09-01T08:41:47.826Z,4.43
2022-09-01T08:45:11.778Z,4.72
2022-09-01T08:49:18.553Z,5.45
2022-09-01T08:52:06.018Z,5.32
2022-09-01T08:55:24.736Z,5.05
2022-09-01T08:58:30.979Z,4.43
2022-09-01T09:02:18.023Z,5.05
2022-09-01T09:05:47.840Z,4.38
2022-09-01T09:08:57.272Z,5.25
2022-09-01T09:12:49.627Z,4.82
2022-09-01T09:16:14.046Z,5.40
2022-09-01T09:19:28.525Z,4.80
2022-09-01T09:22:30.569Z,4.90
2022-09-01T09:25:32.874Z,5.00
2022-09-01T09:28:36.169Z,4.70
2022-09-01T09:31:40.258Z,4.95
2022-09-01T09:34:43.812Z,4.60
2022-09-01T09:37:46.954Z,4.90
2022-09-01T09:41:20.370Z,4.72
2022-09-01T09:44:31.485Z,5.07
2022-09-01T09:47:44.000Z,4.93
2022-09-01T09:50:46.459Z,4.57
2022-09-01T09:53:49.382Z,5.07
2022-09-01T09:57:13.481Z,4.40
2022-09-01T10:00:24.485Z,4.45
2022-09-01T10:04:11.550Z,4.30
2022-09-01T10:07:27.249Z,4.35
2022-09-01T10:10:40.718Z,4.00
2022-09-01T10:13:42.649Z,4.22
2022-09-01T10:16:56.766Z,4.10
2022-09-01T10:20:11.390Z,4.10
2022-09-01T10:23:15.117Z,4.60
2022-09-01T10:26:25.927Z,4.20
2022-09-01T10:29:47.538Z,4.00
2022-09-01T10:32:56.972Z,4.15
2022-09-01T10:36:00.335Z,4.30
2022-09-01T10:39:08.832Z,4.80
2022-09-01T10:42:19.519Z,4.22
2022-09-01T10:45:36.625Z,4.10
2022-09-01T10:48:51.836Z,3.92
2022-09-01T11:03:41.758Z,5.03
2022-09-01T11:06:42.361Z,4.55
2022-09-01T11:09:47.230Z,4.28
2022-09-01T11:13:15.856Z,4.22
2022-09-01T11:16:49.249Z,4.25
2022-09-01T11:20:00.407Z,4.45
2022-09-01T11:23:27.319Z,4.35
2022-09-01T11:26:32.852Z,3.97
2022-09-01T11:30:07.574Z,3.67
2022-09-01T11:36:36.332Z,4.07
2022-09-01T11:39:47.856Z,4.13
2022-09-01T11:42:51.195Z,4.05
2022-09-01T11:46:22.474Z,4.32
2022-09-01T11:49:33.686Z,4.13
2022-09-01T11:52:38.590Z,4.53
2022-09-01T11:55:49.165Z,4.25
2022-09-01T11:58:51.471Z,4.00
2022-09-01T12:01:58.410Z,4.20
2022-09-01T12:05:02.332Z,4.47
2022-09-01T12:08:12.595Z,3.97
2022-09-01T12:11:21.464Z,4.18
2022-09-01T12:14:23.398Z,4.40
2022-09-01T12:17:25.616Z,3.97
2022-09-01T12:20:35.347Z,4.60
2022-09-01T12:23:40.152Z,4.22
2022-09-01T12:26:42.891Z,3.95
2022-09-01T12:29:45.394Z,3.97
2022-09-01T12:32:48.286Z,3.40
2022-09-01T12:35:50.500Z,2.90
2022-09-01T12:38:54.749Z,3.67
2022-09-01T12:42:11.337Z,3.70
2022-09-01T12:45:13.336Z,3.70
2022-09-01T12:48:26.581Z,3.40
2022-09-01T12:51:31.547Z,3.33
2022-09-01T12:54:33.618Z,2.80
2022-09-01T12:57:42.119Z,3.17
2022-09-01T13:01:06.028Z,3.20
2022-09-01T13:04:29.383Z,3.38
2022-09-01T13:07:31.197Z,3.08
2022-09-01T13:10:39.448Z,2.97
2022-09-01T13:13:42.435Z,2.70
2022-09-01T13:16:45.866Z,2.83
2022-09-01T13:19:47.770Z,2.20
2022-09-01T13:22:50.501Z,2.35
2022-09-01T13:25:58.358Z,2.10
2022-09-01T13:29:01.023Z,2.70
2022-09-01T13:32:20.557Z,2.50
2022-09-01T13:35:24.793Z,2.72
2022-09-01T13:38:27.081Z,2.45
2022-09-01T13:41:29.142Z,2.30
2022-09-01T13:44:30.987Z,2.25
2022-09-01T13:47:32.857Z,2.80
2022-09-01T13:53:57.545Z,2.40
2022-09-01T13:56:59.442Z,2.13
2022-09-01T14:00:03.305Z,3.05
2022-09-01T14:03:15.683Z,2.53
2022-09-01T14:06:17.646Z,2.58
2022-09-01T14:09:19.556Z,2.55
2022-09-01T14:12:21.616Z,2.15
2022-09-01T14:15:27.159Z,2.80
2022-09-01T14:18:29.797Z,2.58
2022-09-01T14:21:31.824Z,2.65
2022-09-01T14:24:40.267Z,2.40
2022-09-01T14:27:44.607Z,2.53
2022-09-01T14:30:46.897Z,2.72
2022-09-01T14:33:49.728Z,2.40
2022-09-01T14:36:52.274Z,2.40
2022-09-01T14:39:56.520Z,2.30
2022-09-01T14:42:58.503Z,1.85
2022-09-01T14:46:09.165Z,2.10
2022-09-01T14:49:11.085Z,2.70
2022-09-01T14:52:13.039Z,2.80
2022-09-01T14:55:15.519Z,2.83
2022-09-01T14:58:17.591Z,2.63
2022-09-01T15:01:33.825Z,2.72
2022-09-01T15:04:37.068Z,2.47
2022-09-01T15:07:39.706Z,2.65
2022-09-01T15:10:41.692Z,2.90
2022-09-01T15:13:43.943Z,2.33
2022-09-01T15:16:45.925Z,2.90
2022-09-01T15:19:47.962Z,2.72
2022-09-01T15:22:51.035Z,2.55
2022-09-01T15:25:55.388Z,3.15
2022-09-01T15:28:57.873Z,2.55
2022-09-01T15:32:00.835Z,2.85
2022-09-01T15:35:02.777Z,2.90
2022-09-01T15:38:05.717Z,2.78
2022-09-01T15:41:07.776Z,2.83
2022-09-01T15:44:09.720Z,2.90
2022-09-01T15:47:11.688Z,2.90
2022-09-01T15:50:16.862Z,3.45
2022-09-01T15:53:23.361Z,2.95
2022-09-01T15:56:25.273Z,2.60
2022-09-01T15:59:29.289Z,2.88
2022-09-01T16:02:31.284Z,2.67
2022-09-01T16:05:36.218Z,2.83
2022-09-01T16:08:38.686Z,2.10
2022-09-01T16:11:41.474Z,1.90
2022-09-01T16:14:43.401Z,2.45
2022-09-01T16:18:16.986Z,2.40
2022-09-01T16:21:44.758Z,2.80
2022-09-01T16:24:49.971Z,2.60
2022-09-01T16:27:51.933Z,2.50
2022-09-01T16:31:02.743Z,2.60
2022-09-01T16:34:14.303Z,2.60
2022-09-01T16:37:21.956Z,2.65
2022-09-01T16:40:49.716Z,2.85
2022-09-01T16:44:09.442Z,2.83
2022-09-01T16:47:50.118Z,2.60
2022-09-01T16:51:09.756Z,3.58
2022-09-01T16:54:41.839Z,2.88
2022-09-01T16:57:59.579Z,2.90
2022-09-01T17:01:16.255Z,3.05
2022-09-01T17:04:31.990Z,2.92
2022-09-01T17:07:51.728Z,2.83
2022-09-01T17:11:16.977Z,2.60
2022-09-01T17:14:36.633Z,2.80
2022-09-01T17:17:57.526Z,2.97
2022-09-01T17:21:18.103Z,2.67
2022-09-01T17:24:35.907Z,3.00
2022-09-01T17:27:57.483Z,2.92
2022-09-01T17:31:26.284Z,2.88
2022-09-01T17:34:49.789Z,3.40
2022-09-01T17:38:15.563Z,2.53
2022-09-01T17:41:21.458Z,2.40
2022-09-01T17:44:54.344Z,2.50
2022-09-01T17:48:22.300Z,2.45
2022-09-01T17:51:36.012Z,2.88
2022-09-01T17:55:01.549Z,2.70
2022-09-01T17:58:18.197Z,2.80
2022-09-01T18:01:31.971Z,2.80
2022-09-01T18:08:13.309Z,2.63
2022-09-01T18:11:22.630Z,2.90
2022-09-01T18:14:33.031Z,2.70
2022-09-01T18:17:43.618Z,2.90
2022-09-01T18:20:48.862Z,3.00
2022-09-01T18:23:58.439Z,2.60
2022-09-01T18:27:00.465Z,2.65
2022-09-01T18:30:02.879Z,2.35
2022-09-01T18:33:15.475Z,2.72
2022-09-01T18:36:26.899Z,2.38
2022-09-01T18:39:33.328Z,2.70
2022-09-01T18:42:45.548Z,2.67
2022-09-01T18:45:52.933Z,2.92
2022-09-01T18:49:07.359Z,2.92
2022-09-01T18:52:22.698Z,2.00
2022-09-01T18:55:26.982Z,2.78
2022-09-01T18:58:36.960Z,2.50
2022-09-01T19:01:52.916Z,2.38
2022-09-01T19:05:13.178Z,2.55
2022-09-01T19:08:56.712Z,2.55
2022-09-01T19:12:23.933Z,2.35
2022-09-01T19:15:37.724Z,2.75
2022-09-01T19:19:06.481Z,2.42
2022-09-01T19:22:17.071Z,2.55
2022-09-01T19:25:22.474Z,2.88
2022-09-01T19:28:40.030Z,2.70
2022-09-01T19:31:47.510Z,2.97
2022-09-01T19:34:56.070Z,2.58
2022-09-01T19:38:00.132Z,2.92
2022-09-01T19:41:49.209Z,2.90
2022-09-01T19:45:07.219Z,4.05
2022-09-01T19:48:35.643Z,3.08
2022-09-01T19:51:51.243Z,2.70
2022-09-01T19:55:00.695Z,2.60
2022-09-01T19:58:40.752Z,2.80
2022-09-01T20:01:47.743Z,2.90
2022-09-01T20:05:24.632Z,3.17
2022-09-01T20:08:46.430Z,2.80
2022-09-01T20:12:07.753Z,2.85
2022-09-01T20:15:15.455Z,3.28
2022-09-01T20:18:28.720Z,2.83
2022-09-01T20:21:31.383Z,3.13
2022-09-01T20:24:39.118Z,3.28
2022-09-01T20:27:59.341Z,3.03
2022-09-01T20:31:14.944Z,2.90
2022-09-01T20:34:37.413Z,3.17
2022-09-01T20:37:47.289Z,3.30
2022-09-01T20:40:49.522Z,3.53
2022-09-01T20:43:54.765Z,3.05
2022-09-01T20:46:57.925Z,3.10
2022-09-01T20:50:02.622Z,2.83
2022-09-01T20:53:40.440Z,3.30
2022-09-01T20:57:18.935Z,3.05
2022-09-01T21:00:24.925Z,3.45
2022-09-01T21:03:56.065Z,3.13
2022-09-01T21:06:58.138Z,3.22
2022-09-01T21:10:09.735Z,3.65
2022-09-01T21:13:25.291Z,2.88
2022-09-01T21:16:38.588Z,3.25
2022-09-01T21:19:49.812Z,3.70
2022-09-01T21:22:52.213Z,2.70
2022-09-01T21:25:54.363Z,3.50
2022-09-01T21:29:03.758Z,2.97
2022-09-01T21:32:05.879Z,3.47
2022-09-01T21:35:11.524Z,2.72
2022-09-01T21:38:13.501Z,3.13
2022-09-01T21:41:15.466Z,3.03
2022-09-01T21:44:17.457Z,3.60
2022-09-01T21:47:19.441Z,3.08
2022-09-01T21:50:25.029Z,3.70
2022-09-01T21:53:26.969Z,3.05
2022-09-01T21:56:29.509Z,3.42
2022-09-01T21:59:33.810Z,3.42
2022-09-01T22:02:35.741Z,3.33
2022-09-01T22:05:40.792Z,2.80
2022-09-01T22:08:42.786Z,3.22
2022-09-01T22:11:44.675Z,3.15
2022-09-01T22:14:46.513Z,3.28
2022-09-01T22:17:49.683Z,3.13
2022-09-01T22:21:00.480Z,3.38
2022-09-01T22:24:02.563Z,2.88
2022-09-01T22:27:05.373Z,3.50
2022-09-01T22:30:08.394Z,3.00
2022-09-01T22:33:10.751Z,3.17
2022-09-01T22:39:23.570Z,3.58
2022-09-01T22:42:27.718Z,3.10
2022-09-01T22:48:31.831Z,3.40
2022-09-01T22:51:34.236Z,3.30
2022-09-01T22:54:36.080Z,3.33
2022-09-01T23:00:46.038Z,2.92
2022-09-01T23:03:48.813Z,3.50
2022-09-01T23:06:54.534Z,3.10
2022-09-01T23:09:56.566Z,3.03
2022-09-01T23:12:58.886Z,3.55
2022-09-01T23:16:02.379Z,3.13
2022-09-01T23:19:04.829Z,3.13
2022-09-01T23:22:06.748Z,3.17
2022-09-01T23:25:10.811Z,3.20
2022-09-01T23:28:14.413Z,3.33
2022-09-01T23:31:21.975Z,3.10
2022-09-01T23:34:23.885Z,3.20
2022-09-01T23:37:27.435Z,3.80
2022-09-01T23:40:29.413Z,3.75
2022-09-01T23:43:31.472Z,4.20
2022-09-01T23:46:39.314Z,3.85
2022-09-01T23:49:42.270Z,4.10
2022-09-01T23:52:44.177Z,3.38
2022-09-01T23:55:50.962Z,3.28
2022-09-01T23:58:53.618Z,3.50
